sensor_id;sensor_type;location;lat;lon;timestamp;P1;durP1;ratioP1;P2;durP2;ratioP2
73557;SDS011;61829;53.286;10.434;2022-08-06T00:01:54;2.45;;;0.77;;
73557;SDS011;61829;53.286;10.434;2022-08-06T00:04:21;4.15;;;0.90;;
73557;SDS011;61829;53.286;10.434;2022-08-06T00:06:47;1.73;;;1.00;;
73557;SDS011;61829;53.286;10.434;2022-08-06T00:09:14;2.67;;;0.95;;
73557;SDS011;61829;53.286;10.434;2022-08-06T00:11:40;3.63;;;1.10;;
73557;SDS011;61829;53.286;10.434;2022-08-06T00:14:07;0.82;;;0.82;;
73557;SDS011;61829;53.286;10.434;2022-08-06T00:16:33;3.67;;;1.10;;
73557;SDS011;61829;53.286;10.434;2022-08-06T00:19:00;1.25;;;0.85;;
73557;SDS011;61829;53.286;10.434;2022-08-06T00:21:26;3.53;;;1.45;;
73557;SDS011;61829;53.286;10.434;2022-08-06T00:23:52;4.65;;;1.27;;
73557;SDS011;61829;53.286;10.434;2022-08-06T00:26:18;1.17;;;1.00;;
73557;SDS011;61829;53.286;10.434;2022-08-06T00:28:44;2.50;;;1.20;;
73557;SDS011;61829;53.286;10.434;2022-08-06T00:31:10;2.72;;;1.00;;
73557;SDS011;61829;53.286;10.434;2022-08-06T00:33:36;2.38;;;1.10;;
73557;SDS011;61829;53.286;10.434;2022-08-06T00:36:02;4.15;;;1.00;;
73557;SDS011;61829;53.286;10.434;2022-08-06T00:38:29;1.73;;;1.13;;
73557;SDS011;61829;53.286;10.434;2022-08-06T00:40:55;3.45;;;1.27;;
73557;SDS011;61829;53.286;10.434;2022-08-06T00:43:21;2.03;;;1.10;;
73557;SDS011;61829;53.286;10.434;2022-08-06T00:45:47;3.47;;;1.20;;
73557;SDS011;61829;53.286;10.434;2022-08-06T00:48:13;1.73;;;1.00;;
73557;SDS011;61829;53.286;10.434;2022-08-06T00:50:39;3.28;;;1.00;;
73557;SDS011;61829;53.286;10.434;2022-08-06T00:53:05;2.88;;;1.00;;
73557;SDS011;61829;53.286;10.434;2022-08-06T00:55:32;2.53;;;1.10;;
73557;SDS011;61829;53.286;10.434;2022-08-06T00:57:58;2.90;;;1.27;;
73557;SDS011;61829;53.286;10.434;2022-08-06T01:00:24;2.50;;;1.05;;
73557;SDS011;61829;53.286;10.434;2022-08-06T01:02:50;2.97;;;1.17;;
73557;SDS011;61829;53.286;10.434;2022-08-06T01:05:16;2.50;;;1.08;;
73557;SDS011;61829;53.286;10.434;2022-08-06T01:07:42;4.22;;;1.20;;
73557;SDS011;61829;53.286;10.434;2022-08-06T01:10:09;5.38;;;1.30;;
73557;SDS011;61829;53.286;10.434;2022-08-06T01:12:35;2.78;;;1.15;;
73557;SDS011;61829;53.286;10.434;2022-08-06T01:15:03;3.15;;;1.00;;
73557;SDS011;61829;53.286;10.434;2022-08-06T01:17:33;2.78;;;1.08;;
73557;SDS011;61829;53.286;10.434;2022-08-06T01:28:24;4.45;;;1.10;;
73557;SDS011;61829;53.286;10.434;2022-08-06T01:30:57;3.88;;;1.20;;
73557;SDS011;61829;53.286;10.434;2022-08-06T01:33:38;3.05;;;1.10;;
73557;SDS011;61829;53.286;10.434;2022-08-06T01:36:09;3.85;;;1.13;;
73557;SDS011;61829;53.286;10.434;2022-08-06T01:38:47;3.67;;;1.00;;
73557;SDS011;61829;53.286;10.434;2022-08-06T01:41:16;3.00;;;1.38;;
73557;SDS011;61829;53.286;10.434;2022-08-06T01:44:09;2.13;;;1.25;;
73557;SDS011;61829;53.286;10.434;2022-08-06T01:46:41;2.67;;;1.20;;
73557;SDS011;61829;53.286;10.434;2022-08-06T01:49:10;1.88;;;1.20;;
73557;SDS011;61829;53.286;10.434;2022-08-06T01:51:38;5.28;;;1.40;;
73557;SDS011;61829;53.286;10.434;2022-08-06T01:54:06;4.00;;;1.00;;
73557;SDS011;61829;53.286;10.434;2022-08-06T01:56:38;4.35;;;1.20;;
73557;SDS011;61829;53.286;10.434;2022-08-06T01:59:07;3.58;;;1.30;;
73557;SDS011;61829;53.286;10.434;2022-08-06T02:01:35;2.80;;;1.00;;
73557;SDS011;61829;53.286;10.434;2022-08-06T02:04:04;3.58;;;1.45;;
73557;SDS011;61829;53.286;10.434;2022-08-06T02:06:32;4.35;;;1.40;;
73557;SDS011;61829;53.286;10.434;2022-08-06T02:09:04;2.90;;;1.30;;
73557;SDS011;61829;53.286;10.434;2022-08-06T02:11:34;2.97;;;1.45;;
73557;SDS011;61829;53.286;10.434;2022-08-06T02:14:02;3.83;;;1.20;;
73557;SDS011;61829;53.286;10.434;2022-08-06T02:16:32;3.40;;;1.35;;
73557;SDS011;61829;53.286;10.434;2022-08-06T02:19:03;2.53;;;1.25;;
73557;SDS011;61829;53.286;10.434;2022-08-06T02:21:30;3.25;;;1.20;;
73557;SDS011;61829;53.286;10.434;2022-08-06T02:23:59;4.53;;;1.50;;
73557;SDS011;61829;53.286;10.434;2022-08-06T02:26:27;2.90;;;1.40;;
73557;SDS011;61829;53.286;10.434;2022-08-06T02:28:55;4.03;;;1.35;;
73557;SDS011;61829;53.286;10.434;2022-08-06T02:31:23;3.70;;;1.20;;
73557;SDS011;61829;53.286;10.434;2022-08-06T02:33:50;7.72;;;1.73;;
73557;SDS011;61829;53.286;10.434;2022-08-06T02:36:23;7.63;;;1.95;;
73557;SDS011;61829;53.286;10.434;2022-08-06T02:38:56;2.78;;;1.45;;
73557;SDS011;61829;53.286;10.434;2022-08-06T02:41:31;5.47;;;1.40;;
73557;SDS011;61829;53.286;10.434;2022-08-06T02:44:13;2.67;;;1.10;;
73557;SDS011;61829;53.286;10.434;2022-08-06T02:46:44;2.17;;;1.33;;
73557;SDS011;61829;53.286;10.434;2022-08-06T02:51:50;6.00;;;1.60;;
73557;SDS011;61829;53.286;10.434;2022-08-06T02:54:22;2.83;;;1.50;;
73557;SDS011;61829;53.286;10.434;2022-08-06T02:59:26;2.80;;;1.55;;
73557;SDS011;61829;53.286;10.434;2022-08-06T03:01:55;1.35;;;1.10;;
73557;SDS011;61829;53.286;10.434;2022-08-06T03:04:27;2.42;;;1.25;;
73557;SDS011;61829;53.286;10.434;2022-08-06T03:06:54;4.20;;;1.30;;
73557;SDS011;61829;53.286;10.434;2022-08-06T03:09:24;3.22;;;1.40;;
73557;SDS011;61829;53.286;10.434;2022-08-06T03:11:51;2.08;;;1.30;;
73557;SDS011;61829;53.286;10.434;2022-08-06T03:14:23;7.20;;;1.50;;
73557;SDS011;61829;53.286;10.434;2022-08-06T03:16:50;1.80;;;1.15;;
73557;SDS011;61829;53.286;10.434;2022-08-06T03:19:18;3.17;;;1.30;;
73557;SDS011;61829;53.286;10.434;2022-08-06T03:21:46;1.42;;;1.13;;
73557;SDS011;61829;53.286;10.434;2022-08-06T03:24:13;2.65;;;1.30;;
73557;SDS011;61829;53.286;10.434;2022-08-06T03:26:40;4.38;;;1.35;;
73557;SDS011;61829;53.286;10.434;2022-08-06T03:29:07;7.25;;;1.48;;
73557;SDS011;61829;53.286;10.434;2022-08-06T03:31:35;3.95;;;1.40;;
73557;SDS011;61829;53.286;10.434;2022-08-06T03:34:02;3.50;;;1.50;;
73557;SDS011;61829;53.286;10.434;2022-08-06T03:36:28;4.50;;;1.30;;
73557;SDS011;61829;53.286;10.434;2022-08-06T03:38:59;6.85;;;2.17;;
73557;SDS011;61829;53.286;10.434;2022-08-06T03:41:32;2.85;;;1.50;;
73557;SDS011;61829;53.286;10.434;2022-08-06T03:44:01;2.78;;;1.38;;
73557;SDS011;61829;53.286;10.434;2022-08-06T03:46:58;4.55;;;1.40;;
73557;SDS011;61829;53.286;10.434;2022-08-06T03:49:32;2.85;;;1.40;;
73557;SDS011;61829;53.286;10.434;2022-08-06T03:52:02;5.78;;;1.40;;
73557;SDS011;61829;53.286;10.434;2022-08-06T03:54:31;5.32;;;1.63;;
73557;SDS011;61829;53.286;10.434;2022-08-06T03:57:01;3.88;;;1.75;;
73557;SDS011;61829;53.286;10.434;2022-08-06T03:59:39;5.15;;;1.50;;
73557;SDS011;61829;53.286;10.434;2022-08-06T04:02:08;2.30;;;1.67;;
73557;SDS011;61829;53.286;10.434;2022-08-06T04:07:02;2.90;;;1.45;;
73557;SDS011;61829;53.286;10.434;2022-08-06T04:09:30;3.22;;;1.50;;
73557;SDS011;61829;53.286;10.434;2022-08-06T04:11:58;5.40;;;1.50;;
73557;SDS011;61829;53.286;10.434;2022-08-06T04:14:25;3.90;;;1.38;;
73557;SDS011;61829;53.286;10.434;2022-08-06T04:16:52;4.10;;;1.38;;
73557;SDS011;61829;53.286;10.434;2022-08-06T04:19:19;5.28;;;1.50;;
73557;SDS011;61829;53.286;10.434;2022-08-06T04:21:46;2.45;;;1.50;;
73557;SDS011;61829;53.286;10.434;2022-08-06T04:24:13;2.25;;;1.38;;
73557;SDS011;61829;53.286;10.434;2022-08-06T04:26:41;6.47;;;1.60;;
73557;SDS011;61829;53.286;10.434;2022-08-06T04:29:14;3.60;;;1.60;;
73557;SDS011;61829;53.286;10.434;2022-08-06T04:31:44;3.75;;;1.45;;
73557;SDS011;61829;53.286;10.434;2022-08-06T04:34:12;1.73;;;1.40;;
73557;SDS011;61829;53.286;10.434;2022-08-06T04:36:41;3.65;;;1.70;;
73557;SDS011;61829;53.286;10.434;2022-08-06T04:39:07;3.88;;;1.52;;
73557;SDS011;61829;53.286;10.434;2022-08-06T04:41:33;2.55;;;1.42;;
73557;SDS011;61829;53.286;10.434;2022-08-06T04:43:59;4.20;;;1.30;;
73557;SDS011;61829;53.286;10.434;2022-08-06T04:46:25;4.07;;;1.40;;
73557;SDS011;61829;53.286;10.434;2022-08-06T04:48:52;2.67;;;1.30;;
73557;SDS011;61829;53.286;10.434;2022-08-06T04:51:17;3.30;;;1.20;;
73557;SDS011;61829;53.286;10.434;2022-08-06T04:53:44;2.58;;;1.42;;
73557;SDS011;61829;53.286;10.434;2022-08-06T04:56:12;3.83;;;1.65;;
73557;SDS011;61829;53.286;10.434;2022-08-06T04:58:37;3.65;;;1.30;;
73557;SDS011;61829;53.286;10.434;2022-08-06T05:01:04;4.20;;;1.17;;
73557;SDS011;61829;53.286;10.434;2022-08-06T05:03:30;1.95;;;1.00;;
73557;SDS011;61829;53.286;10.434;2022-08-06T05:06:10;3.30;;;1.10;;
73557;SDS011;61829;53.286;10.434;2022-08-06T05:08:45;2.28;;;1.10;;
73557;SDS011;61829;53.286;10.434;2022-08-06T05:11:21;2.85;;;0.98;;
73557;SDS011;61829;53.286;10.434;2022-08-06T05:13:52;2.15;;;0.90;;
73557;SDS011;61829;53.286;10.434;2022-08-06T05:16:20;2.47;;;0.93;;
73557;SDS011;61829;53.286;10.434;2022-08-06T05:18:51;4.45;;;1.00;;
73557;SDS011;61829;53.286;10.434;2022-08-06T05:21:23;4.35;;;1.10;;
73557;SDS011;61829;53.286;10.434;2022-08-06T05:23:54;2.67;;;1.00;;
73557;SDS011;61829;53.286;10.434;2022-08-06T05:26:21;0.80;;;0.80;;
73557;SDS011;61829;53.286;10.434;2022-08-06T05:28:48;3.17;;;1.10;;
73557;SDS011;61829;53.286;10.434;2022-08-06T05:31:14;52.35;;;26.27;;
73557;SDS011;61829;53.286;10.434;2022-08-06T05:33:40;23.02;;;2.83;;
73557;SDS011;61829;53.286;10.434;2022-08-06T05:36:08;2.40;;;1.50;;
73557;SDS011;61829;53.286;10.434;2022-08-06T05:38:37;2.78;;;1.13;;
73557;SDS011;61829;53.286;10.434;2022-08-06T05:41:05;1.88;;;0.80;;
73557;SDS011;61829;53.286;10.434;2022-08-06T05:43:38;2.15;;;0.80;;
73557;SDS011;61829;53.286;10.434;2022-08-06T05:46:09;3.15;;;1.00;;
73557;SDS011;61829;53.286;10.434;2022-08-06T05:48:41;1.83;;;0.90;;
73557;SDS011;61829;53.286;10.434;2022-08-06T05:51:13;1999.90;;;999.90;;
73557;SDS011;61829;53.286;10.434;2022-08-06T05:53:48;29.90;;;25.92;;
73557;SDS011;61829;53.286;10.434;2022-08-06T05:56:21;1523.90;;;759.95;;
73557;SDS011;61829;53.286;10.434;2022-08-06T05:58:56;1999.90;;;999.90;;
73557;SDS011;61829;53.286;10.434;2022-08-06T06:01:36;1016.45;;;514.97;;
73557;SDS011;61829;53.286;10.434;2022-08-06T06:04:03;57.38;;;52.53;;
73557;SDS011;61829;53.286;10.434;2022-08-06T06:08:56;1999.90;;;999.90;;
73557;SDS011;61829;53.286;10.434;2022-08-06T06:11:22;1999.90;;;999.90;;
73557;SDS011;61829;53.286;10.434;2022-08-06T06:13:49;1999.90;;;999.90;;
73557;SDS011;61829;53.286;10.434;2022-08-06T06:27:13;1999.90;;;999.90;;
73557;SDS011;61829;53.286;10.434;2022-08-06T06:30:06;1999.90;;;999.90;;
73557;SDS011;61829;53.286;10.434;2022-08-06T06:32:38;1999.90;;;999.90;;
73557;SDS011;61829;53.286;10.434;2022-08-06T06:43:14;1999.90;;;999.90;;
73557;SDS011;61829;53.286;10.434;2022-08-06T06:45:51;1999.90;;;999.90;;
73557;SDS011;61829;53.286;10.434;2022-08-06T06:48:45;1999.90;;;999.90;;
73557;SDS011;61829;53.286;10.434;2022-08-06T06:51:27;1999.90;;;999.90;;
73557;SDS011;61829;53.286;10.434;2022-08-06T06:53:55;1999.90;;;999.90;;
73557;SDS011;61829;53.286;10.434;2022-08-06T06:56:23;1999.90;;;999.90;;
73557;SDS011;61829;53.286;10.434;2022-08-06T07:01:22;1999.90;;;999.90;;
73557;SDS011;61829;53.286;10.434;2022-08-06T07:03:49;1999.90;;;999.90;;
73557;SDS011;61829;53.286;10.434;2022-08-06T07:06:16;1999.90;;;999.90;;
73557;SDS011;61829;53.286;10.434;2022-08-06T07:08:45;87.38;;;83.70;;
73557;SDS011;61829;53.286;10.434;2022-08-06T07:11:14;1999.90;;;999.90;;
73557;SDS011;61829;53.286;10.434;2022-08-06T07:13:44;40.90;;;38.92;;
73557;SDS011;61829;53.286;10.434;2022-08-06T07:16:12;100.32;;;92.00;;
73557;SDS011;61829;53.286;10.434;2022-08-06T07:18:41;1999.90;;;999.90;;
73557;SDS011;61829;53.286;10.434;2022-08-06T07:21:09;2.53;;;0.80;;
73557;SDS011;61829;53.286;10.434;2022-08-06T07:23:38;14.55;;;13.25;;
73557;SDS011;61829;53.286;10.434;2022-08-06T07:26:06;41.15;;;39.25;;
73557;SDS011;61829;53.286;10.434;2022-08-06T07:28:34;1501.13;;;751.08;;
73557;SDS011;61829;53.286;10.434;2022-08-06T07:31:04;10.63;;;10.02;;
73557;SDS011;61829;53.286;10.434;2022-08-06T07:33:32;1050.38;;;542.20;;
73557;SDS011;61829;53.286;10.434;2022-08-06T07:36:00;19.17;;;17.83;;
73557;SDS011;61829;53.286;10.434;2022-08-06T07:38:26;1.63;;;1.55;;
73557;SDS011;61829;53.286;10.434;2022-08-06T07:40:54;3.08;;;2.88;;
73557;SDS011;61829;53.286;10.434;2022-08-06T07:43:46;2.00;;;1.90;;
73557;SDS011;61829;53.286;10.434;2022-08-06T07:46:17;2.58;;;2.47;;
73557;SDS011;61829;53.286;10.434;2022-08-06T07:48:47;1.80;;;1.70;;
73557;SDS011;61829;53.286;10.434;2022-08-06T07:51:17;1.70;;;1.60;;
73557;SDS011;61829;53.286;10.434;2022-08-06T07:56:11;1.38;;;1.38;;
73557;SDS011;61829;53.286;10.434;2022-08-06T07:58:38;2.17;;;2.08;;
73557;SDS011;61829;53.286;10.434;2022-08-06T08:01:05;0.80;;;0.80;;
73557;SDS011;61829;53.286;10.434;2022-08-06T08:03:31;1.40;;;1.40;;
73557;SDS011;61829;53.286;10.434;2022-08-06T08:06:18;1.70;;;1.60;;
73557;SDS011;61829;53.286;10.434;2022-08-06T08:08:48;0.85;;;0.85;;
73557;SDS011;61829;53.286;10.434;2022-08-06T08:11:19;0.77;;;0.77;;
73557;SDS011;61829;53.286;10.434;2022-08-06T08:13:51;0.73;;;0.73;;
73557;SDS011;61829;53.286;10.434;2022-08-06T08:16:18;0.60;;;0.60;;
73557;SDS011;61829;53.286;10.434;2022-08-06T08:21:11;0.80;;;0.80;;
73557;SDS011;61829;53.286;10.434;2022-08-06T08:23:39;1.40;;;1.40;;
73557;SDS011;61829;53.286;10.434;2022-08-06T08:26:06;1.35;;;1.35;;
73557;SDS011;61829;53.286;10.434;2022-08-06T08:28:33;0.80;;;0.80;;
73557;SDS011;61829;53.286;10.434;2022-08-06T08:30:59;1.20;;;1.20;;
73557;SDS011;61829;53.286;10.434;2022-08-06T08:33:29;0.80;;;0.80;;
73557;SDS011;61829;53.286;10.434;2022-08-06T08:35:55;0.95;;;0.95;;
73557;SDS011;61829;53.286;10.434;2022-08-06T08:38:21;0.70;;;0.70;;
73557;SDS011;61829;53.286;10.434;2022-08-06T08:40:48;1.73;;;1.63;;
73557;SDS011;61829;53.286;10.434;2022-08-06T08:43:18;0.90;;;0.90;;
73557;SDS011;61829;53.286;10.434;2022-08-06T08:45:47;1.20;;;1.20;;
73557;SDS011;61829;53.286;10.434;2022-08-06T08:48:18;0.80;;;0.80;;
73557;SDS011;61829;53.286;10.434;2022-08-06T08:50:48;0.88;;;0.88;;
73557;SDS011;61829;53.286;10.434;2022-08-06T08:53:19;1.35;;;1.35;;
73557;SDS011;61829;53.286;10.434;2022-08-06T08:55:48;1.45;;;1.42;;
73557;SDS011;61829;53.286;10.434;2022-08-06T08:58:14;1.63;;;1.60;;
73557;SDS011;61829;53.286;10.434;2022-08-06T09:00:41;0.90;;;0.90;;
73557;SDS011;61829;53.286;10.434;2022-08-06T09:03:07;1.00;;;1.00;;
73557;SDS011;61829;53.286;10.434;2022-08-06T09:05:33;1.00;;;1.00;;
73557;SDS011;61829;53.286;10.434;2022-08-06T09:08:00;1.30;;;1.30;;
73557;SDS011;61829;53.286;10.434;2022-08-06T09:10:29;1.52;;;1.50;;
73557;SDS011;61829;53.286;10.434;2022-08-06T09:12:56;1.85;;;1.75;;
73557;SDS011;61829;53.286;10.434;2022-08-06T09:15:22;1.25;;;1.25;;
73557;SDS011;61829;53.286;10.434;2022-08-06T09:17:49;1.85;;;1.75;;
73557;SDS011;61829;53.286;10.434;2022-08-06T09:20:18;1.70;;;1.60;;
73557;SDS011;61829;53.286;10.434;2022-08-06T09:22:44;0.75;;;0.75;;
73557;SDS011;61829;53.286;10.434;2022-08-06T09:25:35;0.80;;;0.80;;
73557;SDS011;61829;53.286;10.434;2022-08-06T09:28:03;0.80;;;0.80;;
73557;SDS011;61829;53.286;10.434;2022-08-06T09:30:34;1.30;;;1.30;;
73557;SDS011;61829;53.286;10.434;2022-08-06T09:33:00;0.80;;;0.80;;
73557;SDS011;61829;53.286;10.434;2022-08-06T09:35:27;0.98;;;0.98;;
73557;SDS011;61829;53.286;10.434;2022-08-06T09:38:02;0.80;;;0.80;;
73557;SDS011;61829;53.286;10.434;2022-08-06T09:40:32;1.85;;;1.75;;
73557;SDS011;61829;53.286;10.434;2022-08-06T09:42:58;1.90;;;1.80;;
73557;SDS011;61829;53.286;10.434;2022-08-06T09:45:25;0.95;;;0.95;;
73557;SDS011;61829;53.286;10.434;2022-08-06T09:48:01;0.47;;;0.47;;
73557;SDS011;61829;53.286;10.434;2022-08-06T09:53:07;0.30;;;0.30;;
73557;SDS011;61829;53.286;10.434;2022-08-06T09:55:34;0.40;;;0.40;;
73557;SDS011;61829;53.286;10.434;2022-08-06T09:58:00;0.40;;;0.40;;
73557;SDS011;61829;53.286;10.434;2022-08-06T10:00:31;0.40;;;0.40;;
73557;SDS011;61829;53.286;10.434;2022-08-06T10:03:00;0.80;;;0.80;;
73557;SDS011;61829;53.286;10.434;2022-08-06T10:05:29;0.90;;;0.90;;
73557;SDS011;61829;53.286;10.434;2022-08-06T10:10:43;1.00;;;1.00;;
73557;SDS011;61829;53.286;10.434;2022-08-06T10:15:42;0.80;;;0.80;;
73557;SDS011;61829;53.286;10.434;2022-08-06T10:18:13;0.82;;;0.82;;
73557;SDS011;61829;53.286;10.434;2022-08-06T10:21:06;0.52;;;0.52;;
73557;SDS011;61829;53.286;10.434;2022-08-06T10:26:26;0.60;;;0.60;;
73557;SDS011;61829;53.286;10.434;2022-08-06T10:28:54;0.80;;;0.80;;
73557;SDS011;61829;53.286;10.434;2022-08-06T10:31:26;0.52;;;0.52;;
73557;SDS011;61829;53.286;10.434;2022-08-06T10:36:40;0.80;;;0.80;;
73557;SDS011;61829;53.286;10.434;2022-08-06T10:39:10;0.40;;;0.40;;
73557;SDS011;61829;53.286;10.434;2022-08-06T10:41:39;0.70;;;0.70;;
73557;SDS011;61829;53.286;10.434;2022-08-06T10:44:06;0.90;;;0.90;;
73557;SDS011;61829;53.286;10.434;2022-08-06T10:46:34;0.60;;;0.60;;
73557;SDS011;61829;53.286;10.434;2022-08-06T10:49:01;0.70;;;0.70;;
73557;SDS011;61829;53.286;10.434;2022-08-06T10:51:27;0.38;;;0.38;;
73557;SDS011;61829;53.286;10.434;2022-08-06T10:53:54;0.40;;;0.40;;
73557;SDS011;61829;53.286;10.434;2022-08-06T10:58:48;0.70;;;0.70;;
73557;SDS011;61829;53.286;10.434;2022-08-06T11:15:21;0.20;;;0.20;;
73557;SDS011;61829;53.286;10.434;2022-08-06T11:17:50;0.20;;;0.20;;
73557;SDS011;61829;53.286;10.434;2022-08-06T11:25:54;1502.57;;;752.47;;
73557;SDS011;61829;53.286;10.434;2022-08-06T11:30:56;1999.90;;;999.90;;
73557;SDS011;61829;53.286;10.434;2022-08-06T11:35:59;1999.90;;;999.90;;
73557;SDS011;61829;53.286;10.434;2022-08-06T11:41:16;1999.90;;;999.90;;
73557;SDS011;61829;53.286;10.434;2022-08-06T11:46:22;1999.90;;;999.90;;
73557;SDS011;61829;53.286;10.434;2022-08-06T11:59:36;1999.90;;;999.90;;
73557;SDS011;61829;53.286;10.434;2022-08-06T12:02:09;1999.90;;;999.90;;
73557;SDS011;61829;53.286;10.434;2022-08-06T12:09:59;71.35;;;23.67;;
73557;SDS011;61829;53.286;10.434;2022-08-06T12:15:35;4.82;;;4.53;;
73557;SDS011;61829;53.286;10.434;2022-08-06T12:20:57;4.82;;;4.53;;
73557;SDS011;61829;53.286;10.434;2022-08-06T12:23:21;5.38;;;5.07;;
73557;SDS011;61829;53.286;10.434;2022-08-06T12:25:53;1999.90;;;999.90;;
73557;SDS011;61829;53.286;10.434;2022-08-06T12:28:20;1999.90;;;999.90;;
73557;SDS011;61829;53.286;10.434;2022-08-06T12:30:48;1999.90;;;999.90;;
73557;SDS011;61829;53.286;10.434;2022-08-06T12:33:17;1999.90;;;999.90;;
73557;SDS011;61829;53.286;10.434;2022-08-06T12:35:54;1999.90;;;999.90;;
73557;SDS011;61829;53.286;10.434;2022-08-06T12:38:23;1999.90;;;999.90;;
73557;SDS011;61829;53.286;10.434;2022-08-06T12:43:27;1999.90;;;999.90;;
73557;SDS011;61829;53.286;10.434;2022-08-06T12:46:01;1999.90;;;999.90;;
73557;SDS011;61829;53.286;10.434;2022-08-06T12:48:32;1999.90;;;999.90;;
73557;SDS011;61829;53.286;10.434;2022-08-06T12:51:02;1999.90;;;999.90;;
73557;SDS011;61829;53.286;10.434;2022-08-06T12:53:29;1999.90;;;999.90;;
73557;SDS011;61829;53.286;10.434;2022-08-06T12:55:56;1999.90;;;999.90;;
73557;SDS011;61829;53.286;10.434;2022-08-06T13:00:56;1999.90;;;999.90;;
73557;SDS011;61829;53.286;10.434;2022-08-06T13:03:24;1999.90;;;999.90;;
73557;SDS011;61829;53.286;10.434;2022-08-06T13:05:52;1999.90;;;999.90;;
73557;SDS011;61829;53.286;10.434;2022-08-06T13:08:21;1999.90;;;999.90;;
73557;SDS011;61829;53.286;10.434;2022-08-06T13:10:48;1999.90;;;999.90;;
73557;SDS011;61829;53.286;10.434;2022-08-06T13:13:19;15.90;;;15.20;;
73557;SDS011;61829;53.286;10.434;2022-08-06T13:16:02;77.60;;;68.50;;
73557;SDS011;61829;53.286;10.434;2022-08-06T13:18:31;7.68;;;7.28;;
73557;SDS011;61829;53.286;10.434;2022-08-06T13:20:58;6.50;;;6.20;;
73557;SDS011;61829;53.286;10.434;2022-08-06T13:25:55;33.50;;;31.98;;
73557;SDS011;61829;53.286;10.434;2022-08-06T13:28:22;10.02;;;9.52;;
73557;SDS011;61829;53.286;10.434;2022-08-06T13:30:49;8.65;;;8.25;;
73557;SDS011;61829;53.286;10.434;2022-08-06T13:35:44;1999.90;;;999.90;;
73557;SDS011;61829;53.286;10.434;2022-08-06T13:38:11;19.95;;;18.30;;
73557;SDS011;61829;53.286;10.434;2022-08-06T13:40:51;7.55;;;7.15;;
73557;SDS011;61829;53.286;10.434;2022-08-06T13:43:17;8.57;;;8.18;;
73557;SDS011;61829;53.286;10.434;2022-08-06T13:45:44;6.55;;;6.03;;
73557;SDS011;61829;53.286;10.434;2022-08-06T13:48:11;13.65;;;12.65;;
73557;SDS011;61829;53.286;10.434;2022-08-06T13:53:08;6.68;;;6.22;;
73557;SDS011;61829;53.286;10.434;2022-08-06T13:55:37;6.32;;;5.88;;
73557;SDS011;61829;53.286;10.434;2022-08-06T13:58:04;18.30;;;14.23;;
73557;SDS011;61829;53.286;10.434;2022-08-06T14:00:30;3.90;;;3.70;;
73557;SDS011;61829;53.286;10.434;2022-08-06T14:02:58;4.03;;;3.83;;
73557;SDS011;61829;53.286;10.434;2022-08-06T14:05:24;19.17;;;18.30;;
73557;SDS011;61829;53.286;10.434;2022-08-06T14:07:50;1999.90;;;999.90;;
73557;SDS011;61829;53.286;10.434;2022-08-06T14:10:16;1999.90;;;999.90;;
73557;SDS011;61829;53.286;10.434;2022-08-06T14:12:43;1999.90;;;999.90;;
73557;SDS011;61829;53.286;10.434;2022-08-06T14:15:34;1999.90;;;999.90;;
73557;SDS011;61829;53.286;10.434;2022-08-06T14:18:00;15.27;;;14.57;;
73557;SDS011;61829;53.286;10.434;2022-08-06T14:20:27;16.50;;;15.43;;
73557;SDS011;61829;53.286;10.434;2022-08-06T14:22:53;1999.90;;;999.90;;
73557;SDS011;61829;53.286;10.434;2022-08-06T14:25:20;17.13;;;16.27;;
73557;SDS011;61829;53.286;10.434;2022-08-06T14:30:12;1.30;;;1.30;;
73557;SDS011;61829;53.286;10.434;2022-08-06T14:36:49;1.02;;;1.02;;
73557;SDS011;61829;53.286;10.434;2022-08-06T14:39:16;0.82;;;0.82;;
73557;SDS011;61829;53.286;10.434;2022-08-06T14:41:41;0.93;;;0.93;;
73557;SDS011;61829;53.286;10.434;2022-08-06T14:44:26;0.70;;;0.70;;
73557;SDS011;61829;53.286;10.434;2022-08-06T14:47:11;1.02;;;1.02;;
73557;SDS011;61829;53.286;10.434;2022-08-06T14:49:37;0.90;;;0.90;;
73557;SDS011;61829;53.286;10.434;2022-08-06T14:52:06;0.95;;;0.95;;
73557;SDS011;61829;53.286;10.434;2022-08-06T14:54:33;1.30;;;1.30;;
73557;SDS011;61829;53.286;10.434;2022-08-06T14:57:01;65.43;;;34.55;;
73557;SDS011;61829;53.286;10.434;2022-08-06T14:59:31;0.60;;;0.60;;
73557;SDS011;61829;53.286;10.434;2022-08-06T15:01:57;0.40;;;0.40;;
73557;SDS011;61829;53.286;10.434;2022-08-06T15:04:23;0.35;;;0.35;;
73557;SDS011;61829;53.286;10.434;2022-08-06T15:06:50;0.20;;;0.20;;
73557;SDS011;61829;53.286;10.434;2022-08-06T15:09:19;0.32;;;0.32;;
73557;SDS011;61829;53.286;10.434;2022-08-06T15:14:11;0.15;;;0.15;;
73557;SDS011;61829;53.286;10.434;2022-08-06T15:16:37;0.40;;;0.40;;
73557;SDS011;61829;53.286;10.434;2022-08-06T15:19:03;0.20;;;0.20;;
73557;SDS011;61829;53.286;10.434;2022-08-06T15:21:29;0.50;;;0.50;;
73557;SDS011;61829;53.286;10.434;2022-08-06T15:27:05;0.47;;;0.47;;
73557;SDS011;61829;53.286;10.434;2022-08-06T15:29:32;0.38;;;0.38;;
73557;SDS011;61829;53.286;10.434;2022-08-06T15:31:58;0.20;;;0.20;;
73557;SDS011;61829;53.286;10.434;2022-08-06T15:34:24;0.40;;;0.40;;
73557;SDS011;61829;53.286;10.434;2022-08-06T15:36:50;0.55;;;0.55;;
73557;SDS011;61829;53.286;10.434;2022-08-06T15:39:16;0.57;;;0.57;;
73557;SDS011;61829;53.286;10.434;2022-08-06T15:41:42;0.55;;;0.55;;
73557;SDS011;61829;53.286;10.434;2022-08-06T15:44:08;0.50;;;0.50;;
73557;SDS011;61829;53.286;10.434;2022-08-06T15:46:34;0.50;;;0.50;;
73557;SDS011;61829;53.286;10.434;2022-08-06T15:49:00;0.60;;;0.60;;
73557;SDS011;61829;53.286;10.434;2022-08-06T15:51:26;0.70;;;0.70;;
73557;SDS011;61829;53.286;10.434;2022-08-06T15:53:52;0.45;;;0.45;;
73557;SDS011;61829;53.286;10.434;2022-08-06T15:56:19;4.13;;;3.95;;
73557;SDS011;61829;53.286;10.434;2022-08-06T15:58:45;16.15;;;14.95;;
73557;SDS011;61829;53.286;10.434;2022-08-06T16:01:11;0.90;;;0.90;;
73557;SDS011;61829;53.286;10.434;2022-08-06T16:03:38;32.53;;;30.02;;
73557;SDS011;61829;53.286;10.434;2022-08-06T16:08:50;1.55;;;1.50;;
73557;SDS011;61829;53.286;10.434;2022-08-06T16:11:17;1999.90;;;999.90;;
73557;SDS011;61829;53.286;10.434;2022-08-06T16:16:10;1999.90;;;999.90;;
73557;SDS011;61829;53.286;10.434;2022-08-06T16:18:36;1999.90;;;999.90;;
73557;SDS011;61829;53.286;10.434;2022-08-06T16:21:03;1999.90;;;999.90;;
73557;SDS011;61829;53.286;10.434;2022-08-06T16:23:30;1999.90;;;999.90;;
73557;SDS011;61829;53.286;10.434;2022-08-06T16:25:57;1999.90;;;999.90;;
73557;SDS011;61829;53.286;10.434;2022-08-06T16:28:23;1999.90;;;999.90;;
73557;SDS011;61829;53.286;10.434;2022-08-06T16:30:49;1999.90;;;999.90;;
73557;SDS011;61829;53.286;10.434;2022-08-06T16:33:15;1999.90;;;999.90;;
73557;SDS011;61829;53.286;10.434;2022-08-06T16:35:41;1999.90;;;999.90;;
73557;SDS011;61829;53.286;10.434;2022-08-06T16:38:08;1999.90;;;999.90;;
73557;SDS011;61829;53.286;10.434;2022-08-06T16:40:34;1999.90;;;999.90;;
73557;SDS011;61829;53.286;10.434;2022-08-06T16:43:00;1999.90;;;999.90;;
73557;SDS011;61829;53.286;10.434;2022-08-06T16:45:26;1999.90;;;999.90;;
73557;SDS011;61829;53.286;10.434;2022-08-06T16:47:53;1999.90;;;999.90;;
73557;SDS011;61829;53.286;10.434;2022-08-06T16:50:20;1999.90;;;999.90;;
73557;SDS011;61829;53.286;10.434;2022-08-06T16:52:48;1999.90;;;999.90;;